createdAt,value
2024-03-04T00:00:34.749Z,72.21
2024-03-04T00:03:02.828Z,71.58
2024-03-04T00:05:30.546Z,71.70
2024-03-04T00:07:58.346Z,72.33
2024-03-04T00:10:26.048Z,72.60
2024-03-04T00:12:53.783Z,72.42
2024-03-04T00:15:21.412Z,72.64
2024-03-04T00:17:51.337Z,72.94
2024-03-04T00:20:19.483Z,72.32
2024-03-04T00:22:48.574Z,72.80
2024-03-04T00:25:17.292Z,73.11
2024-03-04T00:27:45.675Z,72.97
2024-03-04T00:30:14.233Z,73.20
2024-03-04T00:32:42.065Z,73.92
2024-03-04T00:35:12.035Z,73.60
2024-03-04T00:37:39.778Z,73.25
2024-03-04T00:40:09.518Z,73.72
2024-03-04T00:42:39.371Z,74.00
2024-03-04T00:45:07.970Z,74.45
2024-03-04T00:47:35.659Z,73.53
2024-03-04T00:50:03.928Z,73.41
2024-03-04T00:52:33.007Z,73.36
2024-03-04T00:55:02.058Z,72.59
2024-03-04T00:57:29.702Z,73.36
2024-03-04T00:59:58.398Z,73.93
2024-03-04T01:02:26.013Z,73.67
2024-03-04T01:04:53.682Z,73.60
2024-03-04T01:07:21.410Z,73.44
2024-03-04T01:09:50.391Z,74.20
2024-03-04T01:12:18.121Z,73.94
2024-03-04T01:14:45.760Z,74.33
2024-03-04T01:17:18.034Z,74.61
2024-03-04T01:19:47.768Z,74.42
2024-03-04T01:22:17.570Z,74.88
2024-03-04T01:24:45.726Z,75.06
2024-03-04T01:27:15.511Z,75.13
2024-03-04T01:29:43.491Z,75.87
2024-03-04T01:32:11.642Z,76.68
2024-03-04T01:34:41.270Z,76.87
2024-03-04T01:37:09.248Z,76.46
2024-03-04T01:39:37.316Z,76.70
2024-03-04T01:42:05.073Z,77.52
2024-03-04T01:44:36.875Z,77.28
2024-03-04T01:47:06.825Z,77.79
2024-03-04T01:49:37.393Z,78.75
2024-03-04T01:52:07.008Z,78.35
2024-03-04T01:54:37.193Z,78.82
2024-03-04T01:57:05.335Z,79.23
2024-03-04T01:59:35.332Z,78.98
2024-03-04T02:02:07.418Z,78.87
2024-03-04T02:04:35.759Z,78.90
2024-03-04T02:07:04.037Z,79.05
2024-03-04T02:09:32.691Z,79.03
2024-03-04T02:12:00.658Z,79.06
2024-03-04T02:14:28.449Z,79.07
2024-03-04T02:16:57.415Z,78.69
2024-03-04T02:19:25.232Z,78.87
2024-03-04T02:21:57.235Z,79.88
2024-03-04T02:24:26.269Z,79.60
2024-03-04T02:26:54.369Z,79.71
2024-03-04T02:29:21.967Z,79.97
2024-03-04T02:31:50.193Z,80.23
2024-03-04T02:34:18.652Z,80.44
2024-03-04T02:36:46.450Z,79.95
2024-03-04T02:39:14.326Z,79.93
2024-03-04T02:41:43.270Z,80.71
2024-03-04T02:44:10.885Z,80.64
2024-03-04T02:46:41.248Z,80.15
2024-03-04T02:49:08.988Z,81.12
2024-03-04T02:51:36.709Z,80.68
2024-03-04T02:54:04.937Z,80.88
2024-03-04T02:56:32.541Z,80.95
2024-03-04T02:59:01.740Z,80.72
2024-03-04T03:01:29.567Z,81.41
2024-03-04T03:03:57.344Z,80.72
2024-03-04T03:06:26.528Z,81.06
2024-03-04T03:08:54.197Z,81.25
2024-03-04T03:11:21.840Z,81.47
2024-03-04T03:13:49.495Z,81.39
2024-03-04T03:16:21.907Z,81.30
2024-03-04T03:18:50.312Z,81.42
2024-03-04T03:21:18.609Z,81.67
2024-03-04T03:23:47.541Z,81.42
2024-03-04T03:26:15.148Z,81.00
2024-03-04T03:28:42.962Z,80.94
2024-03-04T03:31:11.439Z,81.14
2024-03-04T03:33:40.528Z,81.46
2024-03-04T03:36:08.690Z,81.31
2024-03-04T03:38:36.514Z,81.71
2024-03-04T03:41:05.191Z,81.36
2024-03-04T03:43:32.961Z,81.76
2024-03-04T03:46:02.470Z,81.10
2024-03-04T03:48:30.974Z,81.74
2024-03-04T03:51:00.219Z,81.19
2024-03-04T03:53:27.863Z,81.65
2024-03-04T03:55:55.495Z,81.63
2024-03-04T03:58:23.245Z,81.16
2024-03-04T04:00:50.990Z,80.94
2024-03-04T04:03:18.887Z,80.75
2024-03-04T04:05:46.797Z,80.69
2024-03-04T04:08:15.870Z,80.34
2024-03-04T04:10:43.696Z,80.23
2024-03-04T04:13:11.797Z,80.12
2024-03-04T04:15:40.030Z,81.07
2024-03-04T04:18:07.835Z,80.50
2024-03-04T04:20:35.540Z,80.82
2024-03-04T04:23:03.236Z,80.35
2024-03-04T04:25:32.898Z,80.79
2024-03-04T04:28:01.381Z,79.96
2024-03-04T04:30:29.061Z,80.47
2024-03-04T04:32:56.759Z,80.56
2024-03-04T04:35:24.406Z,80.09
2024-03-04T04:37:52.058Z,80.06
2024-03-04T04:40:20.492Z,80.25
2024-03-04T04:42:49.575Z,80.13
2024-03-04T04:45:18.629Z,79.99
2024-03-04T04:47:46.386Z,79.25
2024-03-04T04:50:14.603Z,79.96
2024-03-04T04:52:42.391Z,79.48
2024-03-04T04:55:11.993Z,79.65
2024-03-04T04:57:40.520Z,79.50
2024-03-04T05:00:13.493Z,79.60
2024-03-04T05:02:42.135Z,79.26
2024-03-04T05:05:10.356Z,79.71
2024-03-04T05:07:39.359Z,80.03
2024-03-04T05:10:08.350Z,80.41
2024-03-04T05:12:36.005Z,80.63
2024-03-04T05:15:05.293Z,80.18
2024-03-04T05:17:34.287Z,80.62
2024-03-04T05:20:02.043Z,81.12
2024-03-04T05:22:29.730Z,80.85
2024-03-04T05:24:57.760Z,81.44
2024-03-04T05:27:28.042Z,81.18
2024-03-04T05:29:57.272Z,80.97
2024-03-04T05:32:25.240Z,81.44
2024-03-04T05:34:54.192Z,80.90
2024-03-04T05:37:22.789Z,80.26
2024-03-04T05:39:52.140Z,80.94
2024-03-04T05:42:19.822Z,80.32
2024-03-04T05:44:47.584Z,80.61
2024-03-04T05:47:15.881Z,80.82
2024-03-04T05:49:43.558Z,81.02
2024-03-04T05:52:12.763Z,81.66
2024-03-04T05:54:40.484Z,81.26
2024-03-04T05:57:08.205Z,81.69
2024-03-04T05:59:35.844Z,81.39
2024-03-04T06:02:03.642Z,81.88
2024-03-04T06:04:32.760Z,81.92
2024-03-04T06:07:02.861Z,82.03
2024-03-04T06:09:32.015Z,82.32
2024-03-04T06:12:01.512Z,82.10
2024-03-04T06:14:29.581Z,81.67
2024-03-04T06:16:57.306Z,81.37
2024-03-04T06:19:25.096Z,81.97
2024-03-04T06:22:04.741Z,82.21
2024-03-04T06:24:37.285Z,81.79
2024-03-04T06:27:05.385Z,81.71
2024-03-04T06:29:34.865Z,81.43
2024-03-04T06:32:02.611Z,81.30
2024-03-04T06:34:31.310Z,80.34
2024-03-04T06:36:59.322Z,80.29
2024-03-04T06:39:28.652Z,79.91
2024-03-04T06:41:57.770Z,80.22
2024-03-04T06:44:25.420Z,80.46
2024-03-04T06:46:53.108Z,80.58
2024-03-04T06:49:20.954Z,80.27
2024-03-04T06:51:48.700Z,80.78
2024-03-04T06:54:16.720Z,80.47
2024-03-04T06:56:44.536Z,80.05
2024-03-04T06:59:13.462Z,80.52
2024-03-04T07:01:41.221Z,80.29
2024-03-04T07:04:09.067Z,80.75
2024-03-04T07:06:36.768Z,80.82
2024-03-04T07:09:05.150Z,80.54
2024-03-04T07:11:32.828Z,80.46
2024-03-04T07:14:00.419Z,80.37
2024-03-04T07:16:29.446Z,80.37
2024-03-04T07:18:57.115Z,80.22
2024-03-04T07:21:24.930Z,80.09
2024-03-04T07:23:52.739Z,80.32
2024-03-04T07:26:21.631Z,80.12
2024-03-04T07:28:49.502Z,80.57
2024-03-04T07:31:17.538Z,80.22
2024-03-04T07:33:47.705Z,80.35
2024-03-04T07:36:17.410Z,80.29
2024-03-04T07:38:45.432Z,80.46
2024-03-04T07:41:13.072Z,80.82
2024-03-04T07:43:42.164Z,81.00
2024-03-04T07:46:10.335Z,80.55
2024-03-04T07:48:38.002Z,81.40
2024-03-04T07:51:07.566Z,80.84
2024-03-04T07:53:35.224Z,80.89
2024-03-04T07:56:02.970Z,81.29
2024-03-04T07:58:30.686Z,81.00
2024-03-04T08:01:01.069Z,81.12
2024-03-04T08:03:28.960Z,80.92
2024-03-04T08:05:56.803Z,81.00
2024-03-04T08:08:25.788Z,81.12
2024-03-04T08:10:53.743Z,80.79
2024-03-04T08:13:21.578Z,80.99
2024-03-04T08:15:50.049Z,81.08
2024-03-04T08:18:17.867Z,81.07
2024-03-04T08:20:45.768Z,80.67
2024-03-04T08:23:13.452Z,80.69
2024-03-04T08:25:42.526Z,80.75
2024-03-04T08:28:19.584Z,81.22
2024-03-04T08:30:52.045Z,81.44
2024-03-04T08:33:19.705Z,81.07
2024-03-04T08:35:47.361Z,80.92
2024-03-04T08:38:15.104Z,80.79
2024-03-04T08:40:44.217Z,81.08
2024-03-04T08:43:12.033Z,80.94
2024-03-04T08:45:39.699Z,80.76
2024-03-04T08:48:09.332Z,80.56
2024-03-04T08:50:37.170Z,80.39
2024-03-04T08:53:05.242Z,80.32
2024-03-04T08:55:32.874Z,80.33
2024-03-04T08:58:01.983Z,80.81
2024-03-04T09:00:29.898Z,80.52
2024-03-04T09:02:57.999Z,79.30
2024-03-04T09:05:25.635Z,79.14
2024-03-04T09:07:53.315Z,79.29
2024-03-04T09:10:20.989Z,79.08
2024-03-04T09:12:48.700Z,79.32
2024-03-04T09:15:18.691Z,79.58
2024-03-04T09:17:46.467Z,79.01
2024-03-04T09:20:14.279Z,80.25
2024-03-04T09:22:42.258Z,79.77
2024-03-04T09:25:09.342Z,79.00
2024-03-04T09:27:37.625Z,78.75
2024-03-04T09:30:07.961Z,79.34
2024-03-04T09:32:37.181Z,79.09
2024-03-04T09:35:05.892Z,78.65
2024-03-04T09:37:33.637Z,78.28
2024-03-04T09:40:01.848Z,78.65
2024-03-04T09:42:32.048Z,77.84
2024-03-04T09:45:00.125Z,78.00
2024-03-04T09:47:28.787Z,77.40
2024-03-04T09:49:58.361Z,77.22
2024-03-04T09:52:30.625Z,77.85
2024-03-04T09:55:02.047Z,77.25
2024-03-04T09:57:30.533Z,76.21
2024-03-04T09:59:59.454Z,77.21
2024-03-04T10:02:27.314Z,76.64
2024-03-04T10:04:55.607Z,76.97
2024-03-04T10:07:25.193Z,77.58
2024-03-04T10:09:55.429Z,77.76
2024-03-04T10:12:23.594Z,77.69
2024-03-04T10:15:07.109Z,76.54
2024-03-04T10:17:34.945Z,75.79
2024-03-04T10:20:04.467Z,76.84
2024-03-04T10:22:37.121Z,76.86
2024-03-04T10:25:06.251Z,77.20
2024-03-04T10:27:34.753Z,76.55
2024-03-04T10:30:11.137Z,75.56
2024-03-04T10:32:39.493Z,75.73
2024-03-04T10:35:08.363Z,76.15
2024-03-04T10:37:37.447Z,76.52
2024-03-04T10:40:06.479Z,76.20
2024-03-04T10:42:34.184Z,76.63
2024-03-04T10:45:02.113Z,76.16
2024-03-04T10:47:30.147Z,76.35
2024-03-04T10:49:57.809Z,75.87
2024-03-04T10:52:25.457Z,76.86
2024-03-04T10:54:54.987Z,77.06
2024-03-04T10:57:29.745Z,77.00
2024-03-04T10:59:58.822Z,76.17
2024-03-04T11:02:34.220Z,76.36
2024-03-04T11:05:03.376Z,76.81
2024-03-04T11:07:32.972Z,76.65
2024-03-04T11:10:07.226Z,76.61
2024-03-04T11:12:35.231Z,76.07
2024-03-04T11:15:08.399Z,76.76
2024-03-04T11:17:38.266Z,76.00
2024-03-04T11:20:09.100Z,75.06
2024-03-04T11:22:38.652Z,75.61
2024-03-04T11:25:08.937Z,75.85
2024-03-04T11:27:37.254Z,75.13
2024-03-04T11:30:06.992Z,75.38
2024-03-04T11:32:34.830Z,75.33
2024-03-04T11:35:07.289Z,73.76
2024-03-04T11:37:39.301Z,74.29
2024-03-04T11:40:10.550Z,74.22
2024-03-04T11:42:39.841Z,74.85
2024-03-04T11:45:08.900Z,74.30
2024-03-04T11:47:36.689Z,73.81
2024-03-04T11:50:07.113Z,74.07
2024-03-04T11:52:39.479Z,73.79
2024-03-04T11:55:10.676Z,72.77
2024-03-04T11:57:38.455Z,73.64
2024-03-04T12:00:11.062Z,73.44
2024-03-04T12:02:39.098Z,72.60
2024-03-04T12:05:07.750Z,73.56
2024-03-04T12:07:35.519Z,73.29
2024-03-04T12:10:12.987Z,72.98
2024-03-04T12:12:46.322Z,72.14
2024-03-04T12:15:14.001Z,71.98
2024-03-04T12:17:42.023Z,71.48
2024-03-04T12:20:11.363Z,71.79
2024-03-04T12:22:39.767Z,70.96
2024-03-04T12:25:09.777Z,71.97
2024-03-04T12:27:39.160Z,72.24
2024-03-04T12:30:15.569Z,71.28
2024-03-04T12:32:43.771Z,71.42
2024-03-04T12:35:18.694Z,70.87
2024-03-04T12:37:48.572Z,71.25
2024-03-04T12:40:16.996Z,71.13
2024-03-04T12:42:44.653Z,70.99
2024-03-04T12:45:13.942Z,69.74
2024-03-04T12:47:42.121Z,69.84
2024-03-04T12:50:11.363Z,69.81
2024-03-04T12:52:40.925Z,70.05
2024-03-04T12:55:14.580Z,70.04
2024-03-04T12:57:42.236Z,69.41
2024-03-04T13:00:13.969Z,70.60
2024-03-04T13:02:43.950Z,70.37
2024-03-04T13:05:11.994Z,70.17
2024-03-04T13:07:40.756Z,71.44
2024-03-04T13:10:10.759Z,70.81
2024-03-04T13:12:39.558Z,71.88
2024-03-04T13:15:09.071Z,70.92
2024-03-04T13:17:36.970Z,70.73
2024-03-04T13:20:10.243Z,70.72
2024-03-04T13:22:38.508Z,71.66
2024-03-04T13:25:07.838Z,71.68
2024-03-04T13:27:35.917Z,70.67
2024-03-04T13:30:04.476Z,71.37
2024-03-04T13:32:32.288Z,71.61
2024-03-04T13:35:00.002Z,72.08
2024-03-04T13:37:29.357Z,71.36
2024-03-04T13:39:57.647Z,71.98
2024-03-04T13:42:25.545Z,72.07
2024-03-04T13:44:53.210Z,72.21
2024-03-04T13:47:20.850Z,71.62
2024-03-04T13:49:49.684Z,71.31
2024-03-04T13:52:17.473Z,72.19
2024-03-04T13:54:46.573Z,72.10
2024-03-04T13:57:14.268Z,71.89
2024-03-04T13:59:41.915Z,72.01
2024-03-04T14:02:09.635Z,71.17
2024-03-04T14:04:37.406Z,72.84
2024-03-04T14:07:05.905Z,72.89
2024-03-04T14:09:33.774Z,72.74
2024-03-04T14:12:02.742Z,72.41
2024-03-04T14:14:30.353Z,72.71
2024-03-04T14:16:58.016Z,71.98
2024-03-04T14:19:25.701Z,72.32
2024-03-04T14:21:53.348Z,70.51
2024-03-04T14:24:21.449Z,70.86
2024-03-04T14:26:49.119Z,71.47
2024-03-04T14:29:18.157Z,71.32
2024-03-04T14:31:45.839Z,71.21
2024-03-04T14:34:13.705Z,70.83
2024-03-04T14:36:41.369Z,71.17
2024-03-04T14:39:12.209Z,70.97
2024-03-04T14:41:40.276Z,70.53
2024-03-04T14:44:08.296Z,71.15
2024-03-04T14:46:37.378Z,70.69
2024-03-04T14:49:05.165Z,69.69
2024-03-04T14:51:34.085Z,70.69
2024-03-04T14:54:01.730Z,70.42
2024-03-04T14:56:31.209Z,70.85
2024-03-04T14:58:59.040Z,70.70
2024-03-04T15:01:26.717Z,70.52
2024-03-04T15:03:55.671Z,70.79
2024-03-04T15:06:23.269Z,71.56
2024-03-04T15:08:51.795Z,70.60
2024-03-04T15:11:19.755Z,70.83
2024-03-04T15:13:47.714Z,71.59
2024-03-04T15:16:17.153Z,71.05
2024-03-04T15:18:44.852Z,73.02
2024-03-04T15:21:13.939Z,73.19
2024-03-04T15:23:41.562Z,71.71
2024-03-04T15:26:09.165Z,72.19
2024-03-04T15:28:36.891Z,71.44
2024-03-04T15:31:04.801Z,72.16
2024-03-04T15:33:32.653Z,71.57
2024-03-04T15:36:09.877Z,72.43
2024-03-04T15:38:46.636Z,71.75
2024-03-04T15:41:14.297Z,72.32
2024-03-04T15:43:42.130Z,72.05
2024-03-04T15:46:09.911Z,72.54
2024-03-04T15:48:37.630Z,72.88
2024-03-04T15:51:07.009Z,72.38
2024-03-04T15:53:35.432Z,72.51
2024-03-04T15:56:05.428Z,72.37
2024-03-04T15:58:33.146Z,73.11
2024-03-04T16:01:02.493Z,72.54
2024-03-04T16:03:33.248Z,72.14
2024-03-04T16:06:03.448Z,72.40
2024-03-04T16:08:31.171Z,70.92
2024-03-04T16:10:59.047Z,71.20
2024-03-04T16:13:28.570Z,72.04
2024-03-04T16:15:59.202Z,71.94
2024-03-04T16:18:27.303Z,72.15
2024-03-04T16:20:54.899Z,71.68
2024-03-04T16:23:22.596Z,71.24
2024-03-04T16:25:50.273Z,72.64
2024-03-04T16:28:18.725Z,73.22
2024-03-04T16:30:49.112Z,72.50
2024-03-04T16:33:16.866Z,73.01
2024-03-04T16:35:44.580Z,73.89
2024-03-04T16:38:12.832Z,73.65
2024-03-04T16:40:41.689Z,73.69
2024-03-04T16:43:09.477Z,73.35
2024-03-04T16:45:37.812Z,73.51
2024-03-04T16:48:07.478Z,73.15
2024-03-04T16:50:35.141Z,74.88
2024-03-04T16:53:02.927Z,75.07
2024-03-04T16:55:34.686Z,75.02
2024-03-04T16:58:04.395Z,74.91
2024-03-04T17:00:32.095Z,74.88
2024-03-04T17:02:59.854Z,74.97
2024-03-04T17:05:28.861Z,74.80
2024-03-04T17:07:56.630Z,74.92
2024-03-04T17:10:24.290Z,74.90
2024-03-04T17:12:53.558Z,75.63
2024-03-04T17:15:22.759Z,75.81
2024-03-04T17:17:52.604Z,74.67
2024-03-04T17:20:22.464Z,74.62
2024-03-04T17:22:51.522Z,74.63
2024-03-04T17:25:19.344Z,74.43
2024-03-04T17:27:47.049Z,75.58
2024-03-04T17:30:15.008Z,75.02
2024-03-04T17:32:42.717Z,74.99
2024-03-04T17:35:10.514Z,75.22
2024-03-04T17:37:38.202Z,75.74
2024-03-04T17:40:09.579Z,76.02
2024-03-04T17:42:37.290Z,75.73
2024-03-04T17:45:05.764Z,75.56
2024-03-04T17:47:33.444Z,75.95
2024-03-04T17:50:01.116Z,76.35
2024-03-04T17:52:28.865Z,74.96
2024-03-04T17:54:56.596Z,75.63
2024-03-04T17:57:25.964Z,75.16
2024-03-04T17:59:53.698Z,75.20
2024-03-04T18:02:22.693Z,75.17
2024-03-04T18:04:51.019Z,75.91
2024-03-04T18:07:18.798Z,75.34
2024-03-04T18:09:47.528Z,76.61
2024-03-04T18:12:15.207Z,76.13
2024-03-04T18:14:44.896Z,76.17
2024-03-04T18:17:12.721Z,75.52
2024-03-04T18:19:40.391Z,75.07
2024-03-04T18:22:09.076Z,75.07
2024-03-04T18:24:37.625Z,75.39
2024-03-04T18:27:05.650Z,75.67
2024-03-04T18:29:33.838Z,75.54
2024-03-04T18:32:02.850Z,75.43
2024-03-04T18:34:30.761Z,75.26
2024-03-04T18:36:59.569Z,75.24
2024-03-04T18:39:28.475Z,75.90
2024-03-04T18:41:57.934Z,76.52
2024-03-04T18:44:25.610Z,76.06
2024-03-04T18:46:53.331Z,76.20
2024-03-04T18:49:22.523Z,75.62
2024-03-04T18:51:50.204Z,75.66
2024-03-04T18:54:18.710Z,75.74
2024-03-04T18:56:47.314Z,76.15
2024-03-04T18:59:15.018Z,75.62
2024-03-04T19:01:42.756Z,75.85
2024-03-04T19:04:10.456Z,75.50
2024-03-04T19:06:39.567Z,75.66
2024-03-04T19:09:07.267Z,75.52
2024-03-04T19:11:35.176Z,75.74
2024-03-04T19:14:02.922Z,74.89
2024-03-04T19:16:30.704Z,75.12
2024-03-04T19:18:58.418Z,75.19
2024-03-04T19:21:27.397Z,75.34
2024-03-04T19:23:56.596Z,75.22
2024-03-04T19:26:24.226Z,75.79
2024-03-04T19:28:52.852Z,75.37
2024-03-04T19:31:21.505Z,75.81
2024-03-04T19:33:50.946Z,75.58
2024-03-04T19:36:18.694Z,75.92
2024-03-04T19:38:46.439Z,75.51
2024-03-04T19:41:20.071Z,75.08
2024-03-04T19:43:47.800Z,75.59
2024-03-04T19:46:22.433Z,75.39
2024-03-04T19:48:51.743Z,75.88
2024-03-04T19:51:22.859Z,75.22
2024-03-04T19:53:50.732Z,76.04
2024-03-04T19:56:19.868Z,75.87
2024-03-04T19:58:48.043Z,75.10
2024-03-04T20:01:16.520Z,75.51
2024-03-04T20:03:45.009Z,75.67
2024-03-04T20:06:13.171Z,75.17
2024-03-04T20:08:41.972Z,75.08
2024-03-04T20:11:11.941Z,74.99
2024-03-04T20:13:42.047Z,75.89
2024-03-04T20:16:10.492Z,75.15
2024-03-04T20:18:38.295Z,76.04
2024-03-04T20:21:07.875Z,75.52
2024-03-04T20:23:37.012Z,75.61
2024-03-04T20:26:05.168Z,75.89
2024-03-04T20:28:34.928Z,75.98
2024-03-04T20:31:04.733Z,75.23
2024-03-04T20:33:33.449Z,74.98
2024-03-04T20:36:02.254Z,75.17
2024-03-04T20:38:29.895Z,75.04
2024-03-04T20:40:58.060Z,75.37
2024-03-04T20:43:25.928Z,75.68
2024-03-04T20:45:54.223Z,74.97
2024-03-04T20:48:25.705Z,75.94
2024-03-04T20:50:54.310Z,75.29
2024-03-04T20:53:22.187Z,75.92
2024-03-04T20:55:50.133Z,75.37
2024-03-04T20:58:17.889Z,75.37
2024-03-04T21:00:46.098Z,75.47
2024-03-04T21:03:13.900Z,75.79
2024-03-04T21:05:42.853Z,75.41
2024-03-04T21:08:10.782Z,75.45
2024-03-04T21:10:38.463Z,75.89
2024-03-04T21:13:06.237Z,76.20
2024-03-04T21:15:34.181Z,76.33
2024-03-04T21:18:01.931Z,75.92
2024-03-04T21:20:29.709Z,76.20
2024-03-04T21:23:03.740Z,76.17
2024-03-04T21:25:31.720Z,76.69
2024-03-04T21:27:59.420Z,76.93
2024-03-04T21:30:28.955Z,76.70
2024-03-04T21:32:56.594Z,76.36
2024-03-04T21:35:24.376Z,76.58
2024-03-04T21:37:52.085Z,76.11
2024-03-04T21:40:21.252Z,75.60
2024-03-04T21:42:48.974Z,75.95
2024-03-04T21:45:16.630Z,75.57
2024-03-04T21:47:45.438Z,74.78
2024-03-04T21:50:13.165Z,75.61
2024-03-04T21:52:42.013Z,76.69
2024-03-04T21:55:12.176Z,75.74
2024-03-04T21:57:41.575Z,76.29
2024-03-04T22:00:15.733Z,76.00
2024-03-04T22:02:44.354Z,76.09
2024-03-04T22:05:13.574Z,76.20
2024-03-04T22:07:42.150Z,76.70
2024-03-04T22:10:12.059Z,76.47
2024-03-04T22:12:41.404Z,76.60
2024-03-04T22:15:11.042Z,76.88
2024-03-04T22:17:39.022Z,76.63
2024-03-04T22:20:10.995Z,76.55
2024-03-04T22:22:39.257Z,76.49
2024-03-04T22:25:07.994Z,75.79
2024-03-04T22:27:35.909Z,76.60
2024-03-04T22:30:05.607Z,76.29
2024-03-04T22:32:33.284Z,76.05
2024-03-04T22:35:01.934Z,76.49
2024-03-04T22:37:31.616Z,76.26
2024-03-04T22:39:59.274Z,76.33
2024-03-04T22:42:26.889Z,77.90
2024-03-04T22:44:54.660Z,76.95
2024-03-04T22:47:24.699Z,77.16
2024-03-04T22:49:52.582Z,77.14
2024-03-04T22:52:20.433Z,78.18
2024-03-04T22:54:49.080Z,78.03
2024-03-04T22:57:16.836Z,77.79
2024-03-04T22:59:45.132Z,77.34
2024-03-04T23:02:13.035Z,77.83
2024-03-04T23:04:42.216Z,77.75
2024-03-04T23:07:10.015Z,78.57
2024-03-04T23:09:39.279Z,78.55
2024-03-04T23:12:10.045Z,77.88
2024-03-04T23:14:38.407Z,78.21
2024-03-04T23:17:07.251Z,77.91
2024-03-04T23:19:35.266Z,77.98
2024-03-04T23:22:04.347Z,78.07
2024-03-04T23:24:31.967Z,78.46
2024-03-04T23:26:59.614Z,78.37
2024-03-04T23:29:27.288Z,78.30
2024-03-04T23:31:55.441Z,78.42
2024-03-04T23:34:23.165Z,77.94
2024-03-04T23:36:51.496Z,77.56
2024-03-04T23:39:24.693Z,77.66
2024-03-04T23:41:52.647Z,78.50
2024-03-04T23:44:20.762Z,79.49
2024-03-04T23:46:48.544Z,78.99
2024-03-04T23:49:16.306Z,79.06
2024-03-04T23:51:43.889Z,79.42
2024-03-04T23:54:11.679Z,78.96
2024-03-04T23:56:42.646Z,78.91
2024-03-04T23:59:10.398Z,79.02
